createdAt,value
2018-02-24T00:00:01.449Z,23.30
2018-02-24T00:02:30.150Z,20.12
2018-02-24T00:04:59.140Z,21.17
2018-02-24T00:07:27.843Z,19.97
2018-02-24T00:09:56.440Z,21.90
2018-02-24T00:12:25.984Z,19.37
2018-02-24T00:14:54.873Z,19.20
2018-02-24T00:17:23.822Z,20.60
2018-02-24T00:19:53.055Z,21.40
2018-02-24T00:22:21.647Z,21.53
2018-02-24T00:24:51.057Z,19.40
2018-02-24T00:27:19.697Z,19.83
2018-02-24T00:29:48.150Z,19.60
2018-02-24T00:32:15.944Z,18.70
2018-02-24T00:34:45.065Z,19.33
2018-02-24T00:37:13.936Z,20.30
2018-02-24T00:39:42.395Z,17.37
2018-02-24T00:42:11.818Z,19.83
2018-02-24T00:44:40.907Z,18.97
2018-02-24T00:47:10.308Z,17.97
2018-02-24T00:49:39.459Z,19.30
2018-02-24T00:52:08.011Z,18.60
2018-02-24T00:54:37.189Z,18.73
2018-02-24T00:57:05.720Z,17.65
2018-02-24T00:59:34.137Z,19.00
2018-02-24T01:02:02.488Z,17.97
2018-02-24T01:04:31.025Z,18.80
2018-02-24T01:06:59.501Z,18.63
2018-02-24T01:09:28.235Z,19.77
2018-02-24T01:11:57.161Z,17.95
2018-02-24T01:14:25.872Z,20.27
2018-02-24T01:16:55.130Z,17.87
2018-02-24T01:19:23.990Z,19.57
2018-02-24T01:21:53.241Z,18.37
2018-02-24T01:24:21.955Z,19.55
2018-02-24T01:26:52.032Z,18.25
2018-02-24T01:29:20.863Z,18.33
2018-02-24T01:31:49.349Z,16.73
2018-02-24T01:34:19.747Z,17.00
2018-02-24T01:36:49.060Z,18.13
2018-02-24T01:39:18.011Z,18.27
2018-02-24T01:41:46.917Z,16.83
2018-02-24T01:44:15.974Z,18.00
2018-02-24T01:46:45.970Z,15.93
2018-02-24T01:49:14.963Z,18.43
2018-02-24T01:51:43.426Z,18.30
2018-02-24T01:54:13.096Z,18.10
2018-02-24T01:56:41.701Z,17.50
2018-02-24T01:59:10.657Z,17.07
2018-02-24T02:01:39.277Z,18.08
2018-02-24T02:04:07.699Z,19.30
2018-02-24T02:06:36.177Z,18.60
2018-02-24T02:09:04.380Z,18.00
2018-02-24T02:11:34.399Z,18.10
2018-02-24T02:14:03.175Z,18.10
2018-02-24T02:16:31.971Z,17.73
2018-02-24T02:19:00.441Z,19.17
2018-02-24T02:21:29.109Z,19.50
2018-02-24T02:23:57.192Z,17.03
2018-02-24T02:26:27.644Z,17.85
2018-02-24T02:28:56.860Z,18.03
2018-02-24T02:31:25.862Z,16.93
2018-02-24T02:33:54.682Z,16.70
2018-02-24T02:36:23.134Z,17.30
2018-02-24T02:38:51.851Z,17.77
2018-02-24T02:41:20.303Z,17.13
2018-02-24T02:43:49.419Z,17.73
2018-02-24T02:46:18.395Z,18.70
2018-02-24T02:48:46.845Z,17.30
2018-02-24T02:51:15.533Z,17.60
2018-02-24T02:53:44.348Z,16.80
2018-02-24T02:56:13.599Z,17.07
2018-02-24T02:58:42.916Z,15.77
2018-02-24T03:01:11.489Z,16.17
2018-02-24T03:03:40.766Z,16.53
2018-02-24T03:06:09.477Z,16.70
2018-02-24T03:08:39.104Z,16.37
2018-02-24T03:11:07.542Z,16.70
2018-02-24T03:13:37.483Z,16.70
2018-02-24T03:16:06.894Z,16.00
2018-02-24T03:18:36.098Z,15.90
2018-02-24T03:21:05.210Z,17.75
2018-02-24T03:23:33.677Z,16.30
2018-02-24T03:26:03.627Z,16.97
2018-02-24T03:28:32.688Z,16.37
2018-02-24T03:31:01.539Z,17.20
2018-02-24T03:33:30.851Z,17.73
2018-02-24T03:35:58.946Z,17.70
2018-02-24T03:38:28.742Z,18.50
2018-02-24T03:40:57.680Z,18.93
2018-02-24T03:43:26.485Z,17.20
2018-02-24T03:45:57.123Z,17.17
2018-02-24T03:48:27.893Z,17.12
2018-02-24T03:50:56.108Z,18.07
2018-02-24T03:53:25.231Z,18.83
2018-02-24T03:55:54.739Z,18.27
2018-02-24T03:58:23.490Z,19.70
2018-02-24T04:00:54.217Z,20.37
2018-02-24T04:03:25.206Z,17.40
2018-02-24T04:05:54.674Z,19.07
2018-02-24T04:08:24.003Z,19.50
2018-02-24T04:10:52.453Z,18.07
2018-02-24T04:13:22.098Z,17.27
2018-02-24T04:15:50.810Z,18.20
2018-02-24T04:18:18.943Z,19.40
2018-02-24T04:20:47.386Z,18.93
2018-02-24T04:23:16.073Z,18.33
2018-02-24T04:25:44.781Z,19.77
2018-02-24T04:28:13.444Z,18.43
2018-02-24T04:30:42.202Z,18.73
2018-02-24T04:33:11.126Z,21.62
2018-02-24T04:35:40.550Z,20.15
2018-02-24T04:38:09.084Z,17.93
2018-02-24T04:40:38.724Z,18.42
2018-02-24T04:43:08.297Z,19.50
2018-02-24T04:45:36.982Z,19.17
2018-02-24T04:48:05.681Z,19.40
2018-02-24T04:50:34.094Z,19.70
2018-02-24T04:53:04.399Z,19.73
2018-02-24T04:55:34.438Z,20.20
2018-02-24T04:58:03.145Z,20.70
2018-02-24T05:00:32.221Z,21.37
2018-02-24T05:03:02.020Z,19.05
2018-02-24T05:05:30.759Z,19.02
2018-02-24T05:07:59.967Z,18.77
2018-02-24T05:10:27.733Z,18.67
2018-02-24T05:12:56.156Z,19.27
2018-02-24T05:15:24.567Z,18.77
2018-02-24T05:17:53.421Z,19.80
2018-02-24T05:20:21.510Z,21.17
2018-02-24T05:22:51.372Z,19.47
2018-02-24T05:25:20.321Z,19.87
2018-02-24T05:27:49.183Z,20.30
2018-02-24T05:30:17.837Z,19.80
2018-02-24T05:32:46.553Z,19.90
2018-02-24T05:35:15.902Z,19.70
2018-02-24T05:37:45.480Z,17.63
2018-02-24T05:40:14.170Z,19.92
2018-02-24T05:42:43.478Z,19.83
2018-02-24T05:45:12.950Z,21.17
2018-02-24T05:47:41.698Z,18.90
2018-02-24T05:50:12.489Z,19.70
2018-02-24T05:52:41.511Z,19.05
2018-02-24T05:55:10.613Z,18.62
2018-02-24T05:57:39.043Z,18.80
2018-02-24T06:00:08.412Z,19.45
2018-02-24T06:02:37.110Z,19.60
2018-02-24T06:05:06.032Z,18.80
2018-02-24T06:07:34.792Z,21.70
2018-02-24T06:10:04.317Z,19.37
2018-02-24T06:12:33.412Z,20.17
2018-02-24T06:15:01.980Z,18.10
2018-02-24T06:17:30.395Z,21.60
2018-02-24T06:19:58.792Z,18.70
2018-02-24T06:22:27.026Z,18.97
2018-02-24T06:24:55.880Z,18.80
2018-02-24T06:27:24.091Z,19.63
2018-02-24T06:29:53.343Z,20.00
2018-02-24T06:32:22.567Z,20.60
2018-02-24T06:34:51.297Z,20.27
2018-02-24T06:37:20.828Z,20.93
2018-02-24T06:39:50.190Z,20.37
2018-02-24T06:42:19.548Z,19.13
2018-02-24T06:44:47.963Z,21.10
2018-02-24T06:47:17.454Z,19.33
2018-02-24T06:49:45.912Z,19.37
2018-02-24T06:52:14.605Z,20.02
2018-02-24T06:54:43.152Z,21.67
2018-02-24T06:57:12.269Z,19.00
2018-02-24T06:59:42.428Z,20.67
2018-02-24T07:02:11.260Z,17.90
2018-02-24T07:04:40.026Z,18.10
2018-02-24T07:07:09.948Z,20.08
2018-02-24T07:09:38.702Z,18.33
2018-02-24T07:12:08.370Z,19.43
2018-02-24T07:14:37.913Z,19.80
2018-02-24T07:17:07.519Z,19.20
2018-02-24T07:19:36.078Z,20.43
2018-02-24T07:22:04.882Z,16.67
2018-02-24T07:24:33.594Z,18.80
2018-02-24T07:27:02.125Z,19.87
2018-02-24T07:29:30.768Z,20.07
2018-02-24T07:31:59.250Z,20.10
2018-02-24T07:34:27.944Z,19.00
2018-02-24T07:36:56.736Z,20.60
2018-02-24T07:39:25.291Z,20.77
2018-02-24T07:41:54.010Z,19.73
2018-02-24T07:44:22.371Z,19.75
2018-02-24T07:46:51.448Z,19.40
2018-02-24T07:49:20.063Z,17.83
2018-02-24T07:51:49.174Z,20.60
2018-02-24T07:54:17.603Z,19.23
2018-02-24T07:56:46.146Z,18.02
2018-02-24T07:59:16.006Z,21.33
2018-02-24T08:01:45.477Z,20.48
2018-02-24T08:04:13.891Z,22.60
2018-02-24T08:06:47.369Z,21.08
2018-02-24T08:11:52.858Z,18.47
2018-02-24T08:14:21.711Z,17.80
2018-02-24T08:16:50.635Z,18.48
2018-02-24T08:19:19.590Z,18.70
2018-02-24T08:21:50.336Z,20.02
2018-02-24T08:24:18.854Z,16.10
2018-02-24T08:26:47.346Z,17.93
2018-02-24T08:29:16.107Z,17.80
2018-02-24T08:31:44.944Z,17.03
2018-02-24T08:34:13.420Z,16.50
2018-02-24T08:36:42.438Z,15.03
2018-02-24T08:39:10.919Z,17.90
2018-02-24T08:41:39.418Z,16.63
2018-02-24T08:44:08.346Z,17.80
2018-02-24T08:49:30.138Z,16.20
2018-02-24T08:52:02.711Z,14.73
2018-02-24T08:54:31.477Z,15.68
2018-02-24T08:56:59.649Z,15.20
2018-02-24T08:59:28.143Z,15.90
2018-02-24T09:01:56.797Z,14.60
2018-02-24T09:04:25.262Z,12.83
2018-02-24T09:06:54.273Z,11.40
2018-02-24T09:09:22.910Z,12.73
2018-02-24T09:11:51.646Z,11.82
2018-02-24T09:14:20.349Z,9.85
2018-02-24T09:16:48.860Z,10.50
2018-02-24T09:19:17.574Z,10.80
2018-02-24T09:21:46.267Z,12.60
2018-02-24T09:24:15.102Z,10.90
2018-02-24T09:26:43.563Z,10.17
2018-02-24T09:29:11.809Z,11.67
2018-02-24T09:31:40.232Z,10.97
2018-02-24T09:34:09.061Z,11.40
2018-02-24T09:36:38.384Z,10.70
2018-02-24T09:39:07.438Z,10.37
2018-02-24T09:41:36.676Z,10.77
2018-02-24T09:44:05.529Z,11.63
2018-02-24T09:46:34.098Z,10.80
2018-02-24T09:49:02.996Z,10.32
2018-02-24T09:51:32.453Z,10.85
2018-02-24T09:54:01.122Z,10.20
2018-02-24T09:56:29.697Z,10.47
2018-02-24T09:58:58.128Z,10.60
2018-02-24T10:01:28.009Z,10.45
2018-02-24T10:03:57.127Z,11.00
2018-02-24T10:06:26.498Z,11.73
2018-02-24T10:08:55.181Z,10.48
2018-02-24T10:11:23.757Z,10.53
2018-02-24T10:13:52.486Z,10.33
2018-02-24T10:16:21.109Z,10.20
2018-02-24T10:18:49.787Z,9.67
2018-02-24T10:21:18.392Z,9.00
2018-02-24T10:23:47.037Z,8.35
2018-02-24T10:26:15.773Z,9.30
2018-02-24T10:28:44.740Z,9.70
2018-02-24T10:31:13.235Z,9.00
2018-02-24T10:33:42.021Z,8.10
2018-02-24T10:36:10.498Z,8.35
2018-02-24T10:38:39.044Z,7.50
2018-02-24T10:41:08.319Z,6.70
2018-02-24T10:43:37.083Z,6.03
2018-02-24T10:46:06.706Z,6.35
2018-02-24T10:48:42.961Z,5.10
2018-02-24T10:51:14.691Z,6.22
2018-02-24T10:53:43.410Z,5.25
2018-02-24T10:56:12.166Z,5.30
2018-02-24T10:58:40.739Z,6.37
2018-02-24T11:01:13.652Z,6.00
2018-02-24T11:03:46.585Z,5.83
2018-02-24T11:06:15.630Z,5.40
2018-02-24T11:08:44.642Z,5.80
2018-02-24T11:11:14.347Z,7.60
2018-02-24T11:13:42.766Z,7.37
2018-02-24T11:16:12.122Z,6.30
2018-02-24T11:18:40.932Z,6.77
2018-02-24T11:21:12.297Z,6.50
2018-02-24T11:23:41.438Z,6.13
2018-02-24T11:26:10.109Z,6.00
2018-02-24T11:28:39.118Z,6.53
2018-02-24T11:31:07.786Z,6.87
2018-02-24T11:33:37.449Z,7.07
2018-02-24T11:36:06.277Z,8.20
2018-02-24T11:38:36.074Z,7.13
2018-02-24T11:41:04.514Z,7.60
2018-02-24T11:43:32.975Z,8.50
2018-02-24T11:46:01.881Z,8.43
2018-02-24T11:48:30.285Z,8.70
2018-02-24T11:50:58.816Z,8.80
2018-02-24T11:56:14.856Z,9.10
2018-02-24T11:58:44.077Z,8.20
2018-02-24T12:01:14.427Z,8.90
2018-02-24T12:03:42.751Z,9.90
2018-02-24T12:06:11.193Z,8.90
2018-02-24T12:11:25.485Z,9.50
2018-02-24T12:13:54.367Z,8.95
2018-02-24T12:16:24.256Z,9.93
2018-02-24T12:18:54.809Z,9.30
2018-02-24T12:21:23.567Z,9.70
2018-02-24T12:23:54.302Z,9.73
2018-02-24T12:26:23.064Z,7.90
2018-02-24T12:28:51.717Z,9.30
2018-02-24T12:31:20.631Z,9.00
2018-02-24T12:33:49.358Z,9.00
2018-02-24T12:36:17.841Z,8.83
2018-02-24T12:38:46.340Z,8.83
2018-02-24T12:41:15.037Z,8.13
2018-02-24T12:43:43.885Z,9.00
2018-02-24T12:46:12.405Z,8.87
2018-02-24T12:48:42.011Z,8.35
2018-02-24T12:51:10.837Z,8.73
2018-02-24T12:53:39.599Z,8.00
2018-02-24T12:56:08.083Z,8.50
2018-02-24T12:58:36.889Z,7.65
2018-02-24T13:01:05.557Z,7.23
2018-02-24T13:03:42.124Z,8.87
2018-02-24T13:18:08.263Z,9.40
2018-02-24T13:20:44.531Z,9.82
2018-02-24T13:23:20.708Z,9.20
2018-02-24T13:25:59.474Z,9.40
2018-02-24T13:31:30.149Z,8.83
2018-02-24T13:34:08.365Z,8.70
2018-02-24T13:36:47.413Z,8.83
2018-02-24T13:43:09.660Z,9.46
2018-02-24T14:00:39.246Z,9.53
2018-02-24T14:03:29.318Z,9.43
2018-02-24T14:06:04.430Z,7.60
2018-02-24T14:08:39.899Z,8.50
2018-02-24T14:11:13.385Z,9.00
2018-02-24T14:21:11.454Z,8.83
2018-02-24T14:26:38.617Z,8.40
2018-02-24T14:29:15.846Z,9.47
2018-02-24T14:34:25.473Z,9.30
2018-02-24T14:36:59.623Z,8.30
2018-02-24T14:42:16.586Z,8.43
2018-02-24T14:44:49.074Z,8.87
2018-02-24T14:47:19.229Z,9.07
2018-02-24T14:49:48.435Z,9.00
2018-02-24T14:52:17.067Z,9.47
2018-02-24T14:54:45.696Z,9.80
2018-02-24T14:57:14.741Z,10.40
2018-02-24T14:59:43.566Z,9.87
2018-02-24T15:02:12.183Z,10.30
2018-02-24T15:04:41.058Z,10.30
2018-02-24T15:07:10.360Z,10.65
2018-02-24T15:09:39.864Z,10.80
2018-02-24T15:12:08.350Z,11.13
2018-02-24T15:14:37.946Z,11.63
2018-02-24T15:17:06.701Z,11.48
2018-02-24T15:19:36.079Z,10.70
2018-02-24T15:22:05.270Z,10.80
2018-02-24T15:24:33.921Z,11.73
2018-02-24T15:27:02.543Z,11.32
2018-02-24T15:29:31.167Z,11.20
2018-02-24T15:31:59.995Z,10.80
2018-02-24T15:34:29.097Z,10.50
2018-02-24T15:36:58.033Z,10.87
2018-02-24T15:39:26.658Z,11.20
2018-02-24T15:41:55.161Z,11.10
2018-02-24T15:44:23.976Z,9.98
2018-02-24T15:46:52.521Z,11.33
2018-02-24T15:49:22.241Z,11.10
2018-02-24T15:51:56.456Z,11.30
2018-02-24T15:54:25.384Z,10.88
2018-02-24T15:56:55.333Z,10.95
2018-02-24T15:59:24.513Z,10.55
2018-02-24T16:01:53.210Z,12.00
2018-02-24T16:04:21.924Z,12.05
2018-02-24T16:06:50.406Z,13.00
2018-02-24T16:09:19.672Z,12.47
2018-02-24T16:11:48.587Z,11.90
2018-02-24T16:14:17.113Z,13.40
2018-02-24T16:16:47.999Z,11.60
2018-02-24T16:19:17.364Z,12.57
2018-02-24T16:21:47.476Z,12.00
2018-02-24T16:24:16.335Z,13.27
2018-02-24T16:26:45.140Z,12.77
2018-02-24T16:29:13.966Z,13.07
2018-02-24T16:31:43.671Z,12.90
2018-02-24T16:34:12.265Z,10.87
2018-02-24T16:36:42.744Z,11.23
2018-02-24T16:39:11.327Z,10.70
2018-02-24T16:41:40.149Z,9.75
2018-02-24T16:44:09.842Z,9.40
2018-02-24T16:46:38.328Z,9.93
2018-02-24T16:49:07.127Z,9.95
2018-02-24T16:51:36.185Z,8.25
2018-02-24T16:54:04.924Z,8.77
2018-02-24T16:56:34.291Z,7.70
2018-02-24T16:59:03.044Z,7.97
2018-02-24T17:01:32.768Z,7.97
2018-02-24T17:04:01.184Z,8.47
2018-02-24T17:06:29.997Z,6.40
2018-02-24T17:08:58.979Z,8.95
2018-02-24T17:11:28.159Z,8.00
2018-02-24T17:13:56.889Z,8.27
2018-02-24T17:16:25.597Z,7.20
2018-02-24T17:18:54.331Z,8.07
2018-02-24T17:21:23.013Z,7.37
2018-02-24T17:23:53.312Z,6.15
2018-02-24T17:26:22.427Z,6.47
2018-02-24T17:28:51.539Z,6.43
2018-02-24T17:31:20.658Z,8.10
2018-02-24T17:33:49.240Z,5.90
2018-02-24T17:36:18.339Z,6.75
2018-02-24T17:38:46.911Z,5.83
2018-02-24T17:41:15.339Z,5.10
2018-02-24T17:43:44.032Z,5.57
2018-02-24T17:46:12.954Z,4.70
2018-02-24T17:48:42.333Z,5.40
2018-02-24T17:51:10.947Z,5.70
2018-02-24T17:53:39.466Z,5.37
2018-02-24T17:56:07.994Z,4.27
2018-02-24T17:58:37.616Z,4.20
2018-02-24T18:01:05.818Z,4.33
2018-02-24T18:03:34.513Z,4.00
2018-02-24T18:06:04.057Z,4.20
2018-02-24T18:08:32.994Z,3.37
2018-02-24T18:11:02.090Z,3.55
2018-02-24T18:13:31.365Z,3.40
2018-02-24T18:16:01.177Z,3.80
2018-02-24T18:18:29.550Z,3.73
2018-02-24T18:20:58.578Z,3.97
2018-02-24T18:23:28.125Z,3.20
2018-02-24T18:25:56.566Z,4.23
2018-02-24T18:28:25.245Z,2.70
2018-02-24T18:30:54.155Z,3.08
2018-02-24T18:33:22.889Z,3.50
2018-02-24T18:35:51.751Z,3.60
2018-02-24T18:38:20.179Z,2.97
2018-02-24T18:40:48.896Z,3.25
2018-02-24T18:43:17.297Z,3.67
2018-02-24T18:45:45.971Z,4.47
2018-02-24T18:48:14.682Z,3.80
2018-02-24T18:50:43.534Z,3.73
2018-02-24T18:53:11.971Z,3.73
2018-02-24T18:55:40.909Z,3.70
2018-02-24T18:58:09.994Z,4.20
2018-02-24T19:00:40.007Z,3.45
2018-02-24T19:03:08.598Z,3.13
2018-02-24T19:05:37.137Z,3.58
2018-02-24T19:08:06.182Z,3.45
2018-02-24T19:10:34.678Z,4.97
2018-02-24T19:13:03.126Z,4.07
2018-02-24T19:15:32.288Z,3.83
2018-02-24T19:18:01.319Z,3.33
2018-02-24T19:20:30.246Z,3.33
2018-02-24T19:22:58.970Z,3.45
2018-02-24T19:25:27.298Z,3.60
2018-02-24T19:27:55.972Z,3.23
2018-02-24T19:30:24.198Z,3.77
2018-02-24T19:32:56.748Z,3.40
2018-02-24T19:35:25.586Z,2.72
2018-02-24T19:37:55.160Z,3.22
2018-02-24T19:40:24.886Z,3.27
2018-02-24T19:42:53.729Z,3.07
2018-02-24T19:45:22.201Z,3.60
2018-02-24T19:47:50.605Z,3.13
2018-02-24T19:50:19.168Z,2.73
2018-02-24T19:52:48.639Z,3.12
2018-02-24T19:55:17.241Z,3.70
2018-02-24T19:57:46.360Z,3.80
2018-02-24T20:00:15.121Z,4.00
2018-02-24T20:02:43.819Z,3.00
2018-02-24T20:05:13.166Z,3.50
2018-02-24T20:07:42.098Z,3.17
2018-02-24T20:10:11.233Z,2.53
2018-02-24T20:12:40.157Z,3.63
2018-02-24T20:15:09.975Z,3.00
2018-02-24T20:17:38.419Z,3.07
2018-02-24T20:20:07.110Z,3.03
2018-02-24T20:22:35.823Z,3.10
2018-02-24T20:25:04.674Z,3.33
2018-02-24T20:27:33.479Z,3.37
2018-02-24T20:30:01.982Z,3.90
2018-02-24T20:32:31.189Z,3.37
2018-02-24T20:35:00.404Z,3.20
2018-02-24T20:37:29.735Z,2.93
2018-02-24T20:39:58.553Z,3.97
2018-02-24T20:42:26.988Z,3.10
2018-02-24T20:44:55.473Z,2.87
2018-02-24T20:47:24.147Z,4.07
2018-02-24T20:49:54.105Z,3.40
2018-02-24T20:52:22.443Z,3.30
2018-02-24T20:54:51.038Z,4.00
2018-02-24T20:57:20.467Z,3.50
2018-02-24T20:59:49.307Z,3.90
2018-02-24T21:02:17.976Z,3.60
2018-02-24T21:04:46.675Z,3.17
2018-02-24T21:07:15.774Z,3.50
2018-02-24T21:09:44.427Z,3.20
2018-02-24T21:12:13.129Z,3.25
2018-02-24T21:14:41.827Z,3.33
2018-02-24T21:17:10.264Z,3.20
2018-02-24T21:19:42.099Z,4.30
2018-02-24T21:22:10.541Z,5.10
2018-02-24T21:24:39.508Z,4.13
2018-02-24T21:27:08.223Z,3.87
2018-02-24T21:29:37.396Z,3.62
2018-02-24T21:32:06.399Z,5.07
2018-02-24T21:34:35.541Z,4.13
2018-02-24T21:37:04.258Z,4.20
2018-02-24T21:39:33.253Z,3.87
2018-02-24T21:42:03.063Z,3.75
2018-02-24T21:44:31.883Z,3.80
2018-02-24T21:47:00.561Z,4.40
2018-02-24T21:49:29.218Z,5.00
2018-02-24T21:51:58.158Z,3.60
2018-02-24T21:54:27.386Z,4.30
2018-02-24T21:56:56.395Z,3.70
2018-02-24T21:59:25.208Z,4.03
2018-02-24T22:01:54.318Z,4.07
2018-02-24T22:04:22.817Z,3.80
2018-02-24T22:06:51.364Z,3.60
2018-02-24T22:09:20.412Z,5.23
2018-02-24T22:11:49.104Z,6.20
2018-02-24T22:14:17.667Z,4.83
2018-02-24T22:16:46.969Z,4.03
2018-02-24T22:19:15.605Z,3.80
2018-02-24T22:21:46.506Z,5.30
2018-02-24T22:24:15.451Z,3.83
2018-02-24T22:26:44.458Z,4.40
2018-02-24T22:29:13.489Z,5.13
2018-02-24T22:31:43.631Z,5.25
2018-02-24T22:34:12.715Z,4.90
2018-02-24T22:39:17.789Z,6.55
2018-02-24T22:41:46.710Z,10.15
2018-02-24T22:44:16.229Z,7.43
2018-02-24T22:46:45.103Z,7.20
2018-02-24T22:49:41.005Z,5.03
2018-02-24T22:52:16.028Z,6.70
2018-02-24T22:57:40.537Z,4.65
2018-02-24T23:02:51.490Z,6.03
2018-02-24T23:05:21.365Z,6.07
2018-02-24T23:07:49.711Z,5.27
2018-02-24T23:10:18.214Z,5.45
2018-02-24T23:12:47.770Z,6.05
2018-02-24T23:15:16.395Z,6.13
2018-02-24T23:17:46.682Z,5.60
2018-02-24T23:20:15.467Z,4.60
2018-02-24T23:22:48.100Z,5.80
2018-02-24T23:25:17.380Z,6.72
2018-02-24T23:27:46.065Z,7.10
2018-02-24T23:30:15.126Z,6.10
2018-02-24T23:32:44.160Z,5.30
2018-02-24T23:35:14.742Z,5.60
2018-02-24T23:37:44.804Z,5.40
2018-02-24T23:40:13.118Z,6.50
2018-02-24T23:42:41.730Z,5.63
2018-02-24T23:45:12.293Z,5.77
2018-02-24T23:47:42.752Z,8.37
2018-02-24T23:50:12.394Z,5.70
2018-02-24T23:52:41.278Z,5.70
2018-02-24T23:55:10.541Z,6.40
2018-02-24T23:57:39.145Z,6.07
